createdAt,value
2023-02-15T00:00:11.641Z,18.30
2023-02-15T00:02:39.310Z,17.40
2023-02-15T00:05:06.904Z,18.45
2023-02-15T00:07:34.368Z,18.55
2023-02-15T00:10:01.790Z,17.50
2023-02-15T00:12:29.241Z,16.42
2023-02-15T00:14:56.605Z,16.10
2023-02-15T00:17:24.051Z,17.23
2023-02-15T00:19:51.671Z,17.30
2023-02-15T00:22:19.191Z,17.17
2023-02-15T00:24:46.552Z,16.83
2023-02-15T00:27:14.045Z,16.85
2023-02-15T00:29:41.480Z,17.75
2023-02-15T00:32:08.886Z,16.75
2023-02-15T00:34:36.391Z,16.08
2023-02-15T00:37:03.948Z,16.52
2023-02-15T00:39:31.462Z,16.95
2023-02-15T00:42:00.041Z,17.17
2023-02-15T00:44:27.489Z,19.70
2023-02-15T00:46:57.457Z,17.42
2023-02-15T00:49:24.969Z,17.60
2023-02-15T00:51:52.335Z,16.95
2023-02-15T00:54:19.824Z,17.13
2023-02-15T00:56:47.205Z,16.67
2023-02-15T00:59:14.736Z,18.08
2023-02-15T01:01:42.176Z,17.58
2023-02-15T01:04:09.697Z,17.77
2023-02-15T01:06:37.264Z,17.75
2023-02-15T01:09:04.758Z,17.38
2023-02-15T01:11:32.234Z,17.17
2023-02-15T01:14:00.293Z,16.67
2023-02-15T01:16:29.283Z,16.80
2023-02-15T01:18:57.140Z,16.33
2023-02-15T01:21:25.507Z,17.10
2023-02-15T01:23:53.058Z,16.05
2023-02-15T01:26:20.497Z,16.38
2023-02-15T01:28:48.225Z,16.00
2023-02-15T01:31:18.020Z,17.02
2023-02-15T01:33:46.620Z,16.42
2023-02-15T01:36:14.520Z,16.52
2023-02-15T01:38:42.843Z,18.30
2023-02-15T01:41:27.132Z,17.17
2023-02-15T01:43:59.416Z,16.67
2023-02-15T01:46:29.947Z,16.23
2023-02-15T01:49:09.043Z,16.85
2023-02-15T01:51:37.924Z,17.13
2023-02-15T01:54:16.068Z,17.90
2023-02-15T01:56:43.726Z,17.65
2023-02-15T01:59:13.352Z,18.08
2023-02-15T02:01:40.908Z,18.83
2023-02-15T02:04:11.303Z,17.52
2023-02-15T02:06:39.217Z,18.65
2023-02-15T02:09:07.466Z,18.27
2023-02-15T02:11:35.876Z,18.45
2023-02-15T02:14:03.334Z,17.90
2023-02-15T02:16:40.032Z,17.98
2023-02-15T02:19:26.738Z,18.80
2023-02-15T02:22:12.796Z,17.70
2023-02-15T02:24:58.242Z,18.77
2023-02-15T02:27:28.864Z,19.50
2023-02-15T02:30:00.670Z,25.75
2023-02-15T02:32:39.584Z,26.60
2023-02-15T02:35:07.001Z,27.27
2023-02-15T02:38:06.507Z,27.05
2023-02-15T02:41:09.572Z,28.38
2023-02-15T02:43:39.616Z,27.20
2023-02-15T02:46:16.340Z,27.60
2023-02-15T02:48:43.954Z,27.92
2023-02-15T02:51:15.107Z,27.65
2023-02-15T02:53:43.415Z,27.88
2023-02-15T02:56:31.903Z,27.25
2023-02-15T02:59:11.536Z,28.17
2023-02-15T03:01:41.690Z,27.40
2023-02-15T03:04:12.108Z,28.98
2023-02-15T03:06:39.529Z,28.15
2023-02-15T03:09:17.605Z,28.38
2023-02-15T03:11:45.953Z,20.95
2023-02-15T03:14:16.159Z,21.52
2023-02-15T03:16:45.513Z,20.90
2023-02-15T03:19:19.642Z,24.17
2023-02-15T03:21:58.669Z,22.25
2023-02-15T03:24:31.946Z,21.98
2023-02-15T03:27:00.236Z,23.35
2023-02-15T03:29:29.076Z,21.58
2023-02-15T03:31:59.640Z,21.65
2023-02-15T03:34:27.315Z,21.00
2023-02-15T03:36:59.729Z,20.20
2023-02-15T03:39:27.155Z,20.50
2023-02-15T03:42:10.334Z,19.92
2023-02-15T03:44:43.698Z,20.05
2023-02-15T03:47:13.830Z,19.17
2023-02-15T03:49:46.716Z,19.08
2023-02-15T03:52:16.360Z,20.77
2023-02-15T03:54:45.059Z,20.10
2023-02-15T03:57:34.943Z,20.20
2023-02-15T04:00:21.764Z,21.55
2023-02-15T04:02:52.213Z,20.17
2023-02-15T04:05:19.715Z,21.10
2023-02-15T04:07:47.124Z,20.70
2023-02-15T04:10:33.057Z,20.63
2023-02-15T04:13:00.499Z,22.42
2023-02-15T04:15:46.611Z,23.58
2023-02-15T04:18:14.063Z,23.02
2023-02-15T04:21:03.446Z,24.17
2023-02-15T04:23:49.683Z,22.52
2023-02-15T04:26:17.282Z,22.88
2023-02-15T04:28:44.697Z,23.55
2023-02-15T04:31:12.248Z,23.10
2023-02-15T04:33:39.776Z,23.20
2023-02-15T04:36:07.328Z,22.63
2023-02-15T04:38:34.741Z,23.65
2023-02-15T04:41:02.193Z,23.58
2023-02-15T04:43:29.680Z,32.25
2023-02-15T04:45:57.240Z,25.23
2023-02-15T04:48:24.773Z,28.33
2023-02-15T04:50:52.223Z,32.22
2023-02-15T04:53:19.624Z,30.65
2023-02-15T04:55:47.024Z,34.67
2023-02-15T04:58:14.400Z,33.10
2023-02-15T05:00:41.822Z,34.67
2023-02-15T05:03:09.204Z,33.35
2023-02-15T05:05:36.690Z,32.05
2023-02-15T05:08:04.099Z,34.78
2023-02-15T05:10:31.542Z,41.08
2023-02-15T05:12:58.942Z,38.63
2023-02-15T05:15:26.378Z,39.42
2023-02-15T05:17:53.850Z,38.55
2023-02-15T05:20:21.361Z,42.00
2023-02-15T05:22:48.813Z,40.00
2023-02-15T05:25:34.918Z,36.83
2023-02-15T05:28:20.506Z,37.13
2023-02-15T05:30:51.982Z,36.70
2023-02-15T05:33:19.745Z,37.15
2023-02-15T05:35:47.211Z,38.00
2023-02-15T05:38:14.654Z,37.80
2023-02-15T05:40:42.077Z,37.08
2023-02-15T05:43:09.481Z,38.63
2023-02-15T05:45:36.848Z,36.10
2023-02-15T05:48:04.367Z,37.15
2023-02-15T05:50:32.073Z,35.95
2023-02-15T05:53:00.857Z,35.10
2023-02-15T05:55:28.220Z,33.53
2023-02-15T05:57:55.676Z,39.42
2023-02-15T06:00:23.126Z,45.15
2023-02-15T06:02:50.743Z,50.05
2023-02-15T06:05:18.300Z,55.22
2023-02-15T06:07:46.012Z,53.20
2023-02-15T06:10:13.479Z,55.75
2023-02-15T06:12:40.833Z,53.38
2023-02-15T06:15:08.562Z,45.00
2023-02-15T06:17:35.986Z,50.70
2023-02-15T06:20:03.756Z,46.28
2023-02-15T06:22:31.148Z,35.42
2023-02-15T06:24:58.546Z,31.73
2023-02-15T06:27:25.940Z,47.60
2023-02-15T06:29:53.492Z,39.53
2023-02-15T06:32:20.909Z,28.73
2023-02-15T06:34:48.934Z,48.15
2023-02-15T06:37:16.438Z,48.22
2023-02-15T06:39:45.155Z,36.63
2023-02-15T06:42:12.556Z,34.45
2023-02-15T06:44:39.947Z,31.35
2023-02-15T06:47:07.332Z,30.75
2023-02-15T06:49:34.786Z,28.33
2023-02-15T06:52:02.154Z,29.67
2023-02-15T06:54:29.628Z,28.95
2023-02-15T06:56:57.028Z,28.30
2023-02-15T06:59:24.588Z,29.33
2023-02-15T07:01:52.016Z,28.38
2023-02-15T07:04:19.445Z,27.73
2023-02-15T07:06:46.914Z,21.92
2023-02-15T07:09:14.359Z,21.90
2023-02-15T07:12:02.075Z,20.40
2023-02-15T07:14:29.561Z,20.17
2023-02-15T07:16:57.038Z,21.02
2023-02-15T07:19:24.457Z,20.65
2023-02-15T07:21:51.861Z,20.33
2023-02-15T07:24:19.295Z,19.15
2023-02-15T07:26:46.715Z,18.70
2023-02-15T07:29:14.172Z,18.42
2023-02-15T07:31:41.624Z,18.50
2023-02-15T07:34:09.081Z,18.35
2023-02-15T07:36:36.573Z,19.33
2023-02-15T07:39:03.981Z,19.30
2023-02-15T07:41:31.422Z,19.85
2023-02-15T07:43:58.825Z,19.25
2023-02-15T07:46:26.299Z,19.27
2023-02-15T07:48:53.846Z,18.58
2023-02-15T07:51:21.275Z,18.58
2023-02-15T07:53:48.771Z,18.75
2023-02-15T07:56:16.868Z,19.38
2023-02-15T07:58:53.309Z,19.60
2023-02-15T08:01:22.516Z,19.38
2023-02-15T08:03:50.446Z,18.85
2023-02-15T08:06:18.373Z,19.35
2023-02-15T08:08:45.869Z,19.05
2023-02-15T08:11:31.645Z,20.52
2023-02-15T08:16:31.007Z,20.42
2023-02-15T08:18:59.114Z,18.70
2023-02-15T08:21:27.992Z,19.05
2023-02-15T08:23:55.831Z,19.27
2023-02-15T08:26:23.970Z,19.45
2023-02-15T08:28:52.084Z,18.38
2023-02-15T08:31:19.665Z,19.33
2023-02-15T08:33:48.288Z,19.35
2023-02-15T08:36:17.712Z,20.80
2023-02-15T08:38:45.339Z,20.45
2023-02-15T08:41:20.236Z,20.30
2023-02-15T08:43:48.695Z,19.05
2023-02-15T08:46:16.926Z,18.60
2023-02-15T08:48:44.758Z,20.00
2023-02-15T08:51:22.853Z,22.05
2023-02-15T08:53:51.577Z,19.83
2023-02-15T08:56:20.354Z,19.60
2023-02-15T08:58:48.214Z,19.40
2023-02-15T09:01:21.027Z,19.70
2023-02-15T09:03:50.228Z,19.20
2023-02-15T09:06:21.302Z,19.13
2023-02-15T09:08:48.896Z,18.75
2023-02-15T09:11:23.207Z,19.15
2023-02-15T09:13:54.853Z,20.30
2023-02-15T09:16:24.337Z,19.02
2023-02-15T09:18:52.123Z,18.52
2023-02-15T09:21:24.996Z,17.75
2023-02-15T09:23:53.178Z,19.02
2023-02-15T09:26:21.751Z,19.45
2023-02-15T09:28:50.350Z,18.00
2023-02-15T09:31:22.020Z,17.73
2023-02-15T09:33:50.078Z,18.02
2023-02-15T09:36:17.513Z,18.00
2023-02-15T09:38:47.080Z,16.77
2023-02-15T09:41:33.032Z,17.20
2023-02-15T09:44:12.747Z,18.15
2023-02-15T09:46:49.472Z,17.00
2023-02-15T09:49:29.221Z,16.80
2023-02-15T09:52:00.103Z,16.23
2023-02-15T09:54:32.516Z,16.35
2023-02-15T09:57:01.735Z,15.65
2023-02-15T09:59:29.129Z,15.63
2023-02-15T10:02:05.773Z,15.23
2023-02-15T10:04:36.332Z,14.80
2023-02-15T10:07:07.544Z,15.57
2023-02-15T10:09:38.698Z,15.18
2023-02-15T10:12:21.820Z,16.27
2023-02-15T10:14:55.258Z,13.65
2023-02-15T10:17:35.018Z,15.15
2023-02-15T10:20:12.169Z,14.93
2023-02-15T10:22:42.459Z,14.05
2023-02-15T10:25:19.218Z,13.90
2023-02-15T10:27:50.980Z,14.38
2023-02-15T10:30:41.550Z,15.18
2023-02-15T10:33:32.315Z,14.07
2023-02-15T10:36:07.759Z,14.80
2023-02-15T10:38:46.529Z,14.15
2023-02-15T10:41:13.930Z,13.13
2023-02-15T10:43:41.279Z,13.43
2023-02-15T10:46:11.847Z,14.77
2023-02-15T10:48:45.532Z,14.52
2023-02-15T10:51:17.982Z,14.90
2023-02-15T10:53:55.949Z,16.05
2023-02-15T10:56:27.949Z,15.52
2023-02-15T10:59:14.237Z,14.68
2023-02-15T11:02:00.529Z,14.05
2023-02-15T11:04:50.499Z,14.75
2023-02-15T11:07:20.536Z,14.35
2023-02-15T11:09:58.733Z,15.35
2023-02-15T11:12:28.896Z,14.55
2023-02-15T11:14:59.553Z,14.57
2023-02-15T11:17:30.114Z,15.82
2023-02-15T11:20:06.253Z,15.70
2023-02-15T11:22:35.262Z,15.70
2023-02-15T11:25:03.828Z,14.40
2023-02-15T11:27:34.547Z,16.05
2023-02-15T11:30:13.118Z,16.10
2023-02-15T11:32:46.278Z,14.60
2023-02-15T11:35:13.839Z,15.50
2023-02-15T11:37:44.313Z,14.48
2023-02-15T11:40:21.090Z,15.32
2023-02-15T11:42:52.370Z,15.13
2023-02-15T11:45:25.728Z,15.63
2023-02-15T11:47:53.722Z,16.75
2023-02-15T11:50:25.525Z,16.65
2023-02-15T11:52:54.042Z,13.68
2023-02-15T11:55:24.088Z,13.50
2023-02-15T11:58:09.908Z,14.85
2023-02-15T12:00:39.742Z,14.00
2023-02-15T12:03:30.528Z,14.60
2023-02-15T12:05:59.973Z,13.98
2023-02-15T12:08:28.616Z,14.63
2023-02-15T12:11:13.233Z,12.60
2023-02-15T12:14:00.422Z,13.10
2023-02-15T12:16:29.636Z,13.02
2023-02-15T12:18:58.509Z,12.00
2023-02-15T12:21:28.080Z,12.00
2023-02-15T12:23:57.819Z,12.50
2023-02-15T12:26:36.519Z,11.23
2023-02-15T12:29:09.178Z,11.10
2023-02-15T12:31:38.899Z,12.43
2023-02-15T12:34:14.038Z,13.20
2023-02-15T12:36:47.495Z,12.73
2023-02-15T12:39:14.970Z,12.88
2023-02-15T12:41:57.570Z,12.25
2023-02-15T12:44:26.892Z,12.75
2023-02-15T12:47:28.946Z,13.27
2023-02-15T12:50:19.659Z,11.93
2023-02-15T12:52:49.236Z,12.15
2023-02-15T12:55:20.022Z,11.80
2023-02-15T12:57:48.267Z,13.32
2023-02-15T13:00:24.454Z,12.50
2023-02-15T13:02:53.350Z,12.07
2023-02-15T13:05:35.350Z,11.85
2023-02-15T13:08:11.293Z,12.32
2023-02-15T13:10:42.146Z,11.05
2023-02-15T13:13:13.558Z,11.73
2023-02-15T13:15:42.752Z,11.20
2023-02-15T13:18:14.034Z,11.93
2023-02-15T13:20:42.212Z,11.50
2023-02-15T13:23:22.662Z,11.63
2023-02-15T13:25:51.678Z,11.05
2023-02-15T13:28:20.819Z,10.63
2023-02-15T13:30:49.210Z,10.45
2023-02-15T13:33:19.396Z,10.00
2023-02-15T13:36:08.870Z,10.40
2023-02-15T13:38:47.031Z,11.00
2023-02-15T13:41:27.695Z,10.95
2023-02-15T13:44:08.314Z,10.50
2023-02-15T13:46:44.014Z,10.32
2023-02-15T13:49:11.711Z,10.20
2023-02-15T13:51:44.973Z,10.15
2023-02-15T13:54:29.223Z,9.65
2023-02-15T13:57:15.249Z,9.55
2023-02-15T13:59:42.752Z,10.20
2023-02-15T14:02:13.267Z,10.57
2023-02-15T14:04:47.987Z,10.45
2023-02-15T14:07:22.755Z,10.43
2023-02-15T14:09:53.240Z,17.40
2023-02-15T14:12:36.041Z,9.43
2023-02-15T14:15:15.821Z,10.85
2023-02-15T14:18:02.039Z,8.98
2023-02-15T14:20:43.498Z,9.65
2023-02-15T14:23:31.146Z,10.60
2023-02-15T14:25:58.636Z,10.05
2023-02-15T14:28:52.877Z,10.25
2023-02-15T14:31:22.843Z,9.88
2023-02-15T14:33:59.508Z,10.52
2023-02-15T14:36:31.222Z,9.50
2023-02-15T14:39:01.756Z,10.75
2023-02-15T14:41:33.406Z,10.30
2023-02-15T14:44:17.764Z,8.65
2023-02-15T14:47:06.897Z,8.18
2023-02-15T14:49:37.150Z,8.63
2023-02-15T14:52:08.139Z,8.98
2023-02-15T14:54:35.620Z,8.55
2023-02-15T14:57:03.038Z,8.82
2023-02-15T14:59:42.907Z,8.68
2023-02-15T15:02:10.323Z,9.00
2023-02-15T15:04:37.738Z,8.75
2023-02-15T15:07:14.579Z,8.80
2023-02-15T15:09:43.794Z,9.13
2023-02-15T15:12:23.315Z,9.38
2023-02-15T15:14:51.273Z,11.00
2023-02-15T15:17:34.388Z,12.38
2023-02-15T15:20:04.162Z,13.05
2023-02-15T15:22:32.817Z,12.95
2023-02-15T15:25:04.158Z,11.50
2023-02-15T15:27:41.052Z,10.00
2023-02-15T15:30:20.648Z,10.50
2023-02-15T15:32:48.096Z,11.68
2023-02-15T15:35:15.485Z,13.27
2023-02-15T15:37:46.106Z,15.45
2023-02-15T15:40:14.095Z,17.15
2023-02-15T15:42:51.860Z,14.40
2023-02-15T15:45:19.278Z,11.52
2023-02-15T15:47:53.485Z,10.85
2023-02-15T15:50:26.418Z,10.90
2023-02-15T15:52:55.304Z,11.73
2023-02-15T15:55:24.609Z,11.98
2023-02-15T15:57:53.313Z,11.35
2023-02-15T16:00:39.709Z,11.95
2023-02-15T16:03:07.468Z,11.68
2023-02-15T16:05:39.751Z,11.07
2023-02-15T16:08:07.611Z,11.68
2023-02-15T16:10:36.881Z,12.55
2023-02-15T16:13:08.350Z,13.38
2023-02-15T16:15:37.960Z,15.57
2023-02-15T16:18:05.780Z,16.67
2023-02-15T16:20:35.115Z,19.15
2023-02-15T16:23:11.464Z,19.50
2023-02-15T16:25:41.939Z,20.77
2023-02-15T16:28:10.674Z,20.38
2023-02-15T16:30:40.602Z,17.38
2023-02-15T16:33:09.826Z,14.52
2023-02-15T16:35:38.491Z,13.13
2023-02-15T16:38:06.268Z,12.80
2023-02-15T16:40:43.334Z,13.05
2023-02-15T16:43:15.810Z,13.93
2023-02-15T16:45:43.447Z,13.80
2023-02-15T16:48:15.555Z,14.63
2023-02-15T16:50:48.206Z,15.20
2023-02-15T16:53:18.925Z,15.07
2023-02-15T16:55:50.255Z,15.40
2023-02-15T16:58:19.067Z,16.30
2023-02-15T17:00:46.562Z,19.90
2023-02-15T17:03:14.167Z,19.70
2023-02-15T17:05:41.815Z,19.50
2023-02-15T17:08:27.920Z,19.88
2023-02-15T17:11:01.638Z,22.23
2023-02-15T17:13:29.522Z,23.23
2023-02-15T17:16:00.640Z,19.30
2023-02-15T17:18:29.966Z,14.95
2023-02-15T17:20:58.909Z,14.05
2023-02-15T17:23:38.713Z,13.80
2023-02-15T17:26:32.733Z,14.18
2023-02-15T17:29:01.858Z,14.32
2023-02-15T17:31:33.265Z,15.32
2023-02-15T17:34:01.639Z,15.73
2023-02-15T17:36:30.658Z,26.02
2023-02-15T17:39:00.911Z,57.95
2023-02-15T17:41:32.476Z,46.58
2023-02-15T17:44:00.023Z,94.75
2023-02-15T17:46:29.203Z,88.93
2023-02-15T17:48:57.059Z,63.38
2023-02-15T17:51:24.715Z,46.88
2023-02-15T17:54:11.569Z,54.90
2023-02-15T17:56:40.121Z,35.97
2023-02-15T17:59:08.153Z,33.78
2023-02-15T18:01:55.169Z,38.47
2023-02-15T18:04:41.754Z,27.30
2023-02-15T18:07:32.924Z,20.58
2023-02-15T18:10:20.025Z,21.75
2023-02-15T18:12:47.876Z,31.60
2023-02-15T18:15:15.379Z,39.88
2023-02-15T18:17:45.563Z,33.35
2023-02-15T18:20:20.010Z,37.80
2023-02-15T18:22:47.901Z,42.67
2023-02-15T18:25:18.705Z,43.70
2023-02-15T18:27:46.357Z,60.70
2023-02-15T18:30:18.486Z,55.22
2023-02-15T18:32:47.857Z,50.85
2023-02-15T18:35:19.819Z,52.75
2023-02-15T18:37:50.567Z,56.00
2023-02-15T18:40:19.666Z,53.85
2023-02-15T18:42:48.205Z,55.80
2023-02-15T18:45:27.517Z,56.15
2023-02-15T18:47:56.632Z,53.67
2023-02-15T18:50:25.489Z,52.65
2023-02-15T18:52:53.186Z,49.97
2023-02-15T18:55:22.584Z,45.50
2023-02-15T18:57:51.806Z,44.47
2023-02-15T19:00:20.914Z,45.92
2023-02-15T19:02:48.737Z,43.72
2023-02-15T19:05:20.638Z,43.85
2023-02-15T19:07:51.493Z,42.08
2023-02-15T19:10:28.823Z,45.22
2023-02-15T19:12:56.600Z,50.95
2023-02-15T19:15:25.856Z,58.40
2023-02-15T19:17:53.404Z,84.00
2023-02-15T19:20:22.437Z,68.03
2023-02-15T19:22:51.006Z,63.03
2023-02-15T19:25:21.946Z,63.40
2023-02-15T19:27:49.477Z,67.72
2023-02-15T19:30:22.407Z,67.88
2023-02-15T19:32:50.328Z,69.25
2023-02-15T19:35:22.610Z,63.95
2023-02-15T19:37:51.762Z,62.35
2023-02-15T19:40:20.549Z,61.50
2023-02-15T19:42:50.357Z,56.60
2023-02-15T19:45:19.207Z,57.10
2023-02-15T19:47:48.274Z,56.45
2023-02-15T19:50:16.759Z,55.08
2023-02-15T19:52:44.543Z,48.00
2023-02-15T19:55:24.666Z,48.78
2023-02-15T19:57:52.588Z,65.28
2023-02-15T20:00:22.673Z,60.25
2023-02-15T20:02:54.037Z,53.95
2023-02-15T20:05:21.976Z,59.42
2023-02-15T20:07:50.120Z,61.30
2023-02-15T20:10:17.620Z,64.72
2023-02-15T20:12:45.534Z,64.18
2023-02-15T20:15:27.166Z,54.78
2023-02-15T20:17:54.979Z,52.50
2023-02-15T20:20:23.250Z,54.40
2023-02-15T20:22:52.049Z,52.08
2023-02-15T20:25:26.671Z,54.17
2023-02-15T20:27:54.719Z,55.92
2023-02-15T20:30:26.412Z,52.35
2023-02-15T20:32:54.377Z,51.17
2023-02-15T20:35:23.530Z,53.38
2023-02-15T20:37:52.503Z,55.35
2023-02-15T20:40:25.141Z,57.05
2023-02-15T20:42:53.014Z,57.08
2023-02-15T20:45:20.736Z,56.42
2023-02-15T20:47:48.717Z,58.63
2023-02-15T20:50:20.694Z,57.65
2023-02-15T20:52:48.861Z,64.38
2023-02-15T20:55:42.539Z,68.85
2023-02-15T20:58:30.280Z,64.10
2023-02-15T21:00:59.210Z,59.35
2023-02-15T21:03:30.654Z,63.25
2023-02-15T21:05:58.867Z,63.78
2023-02-15T21:08:26.551Z,62.42
2023-02-15T21:10:54.600Z,62.83
2023-02-15T21:13:24.812Z,61.50
2023-02-15T21:15:53.191Z,61.33
2023-02-15T21:18:22.841Z,61.38
2023-02-15T21:20:51.519Z,60.65
2023-02-15T21:23:21.037Z,63.30
2023-02-15T21:25:48.502Z,61.90
2023-02-15T21:28:20.485Z,54.08
2023-02-15T21:30:49.082Z,51.45
2023-02-15T21:33:16.956Z,48.40
2023-02-15T21:35:45.473Z,45.85
2023-02-15T21:38:16.362Z,46.20
2023-02-15T21:40:44.062Z,47.78
2023-02-15T21:43:33.460Z,46.95
2023-02-15T21:46:30.263Z,44.47
2023-02-15T21:48:57.901Z,41.00
2023-02-15T21:51:44.198Z,39.47
2023-02-15T21:54:15.266Z,37.47
2023-02-15T21:56:42.719Z,38.35
2023-02-15T21:59:13.702Z,37.35
2023-02-15T22:01:46.716Z,37.47
2023-02-15T22:04:15.560Z,37.50
2023-02-15T22:06:43.141Z,32.47
2023-02-15T22:09:17.744Z,28.63
2023-02-15T22:11:45.278Z,27.17
2023-02-15T22:14:36.434Z,26.27
2023-02-15T22:17:24.991Z,26.77
2023-02-15T22:19:52.969Z,27.55
2023-02-15T22:22:20.349Z,30.45
2023-02-15T22:24:47.875Z,31.92
2023-02-15T22:27:19.112Z,32.22
2023-02-15T22:29:46.718Z,31.90
2023-02-15T22:32:19.066Z,35.15
2023-02-15T22:34:46.880Z,34.58
2023-02-15T22:37:14.349Z,33.22
2023-02-15T22:39:42.012Z,37.55
2023-02-15T22:42:27.422Z,36.70
2023-02-15T22:44:55.686Z,36.00
2023-02-15T22:47:24.110Z,36.83
2023-02-15T22:49:51.741Z,32.88
2023-02-15T22:52:19.179Z,29.95
2023-02-15T22:54:46.606Z,24.20
2023-02-15T22:57:32.810Z,24.33
2023-02-15T23:00:01.298Z,23.52
2023-02-15T23:02:28.743Z,25.25
2023-02-15T23:04:56.187Z,23.48
2023-02-15T23:07:23.673Z,25.65
2023-02-15T23:09:51.419Z,24.98
2023-02-15T23:12:26.929Z,25.25
2023-02-15T23:14:54.951Z,24.25
2023-02-15T23:17:22.622Z,24.65
2023-02-15T23:19:50.080Z,27.75
2023-02-15T23:22:18.322Z,25.88
2023-02-15T23:24:50.622Z,24.30
2023-02-15T23:27:37.242Z,23.38
2023-02-15T23:30:05.897Z,23.88
2023-02-15T23:32:33.445Z,24.88
2023-02-15T23:35:00.971Z,24.70
2023-02-15T23:37:28.517Z,28.00
2023-02-15T23:40:14.783Z,20.92
2023-02-15T23:42:42.306Z,21.42
2023-02-15T23:45:19.244Z,21.27
2023-02-15T23:48:05.641Z,20.48
2023-02-15T23:50:33.168Z,19.88
2023-02-15T23:53:01.314Z,19.20
2023-02-15T23:55:36.164Z,19.65
2023-02-15T23:58:04.978Z,21.50
